createdAt,value
2022-11-12T00:00:20.340Z,11.1
2022-11-12T00:05:20.406Z,11.1
2022-11-12T00:10:20.369Z,11.1
2022-11-12T00:15:20.367Z,11.1
2022-11-12T00:20:20.521Z,11
2022-11-12T00:25:20.403Z,11
2022-11-12T00:30:20.452Z,10.9
2022-11-12T00:35:20.441Z,10.9
2022-11-12T00:40:20.557Z,10.9
2022-11-12T00:45:20.701Z,10.9
2022-11-12T00:50:20.509Z,10.8
2022-11-12T00:55:20.517Z,10.8
2022-11-12T01:00:20.618Z,10.8
2022-11-12T01:05:20.508Z,10.8
2022-11-12T01:10:20.510Z,10.7
2022-11-12T01:15:20.586Z,10.7
2022-11-12T01:20:20.776Z,10.7
2022-11-12T01:25:20.661Z,10.6
2022-11-12T01:30:20.989Z,10.6
2022-11-12T01:35:20.912Z,10.6
2022-11-12T01:40:20.904Z,10.5
2022-11-12T01:45:20.790Z,10.5
2022-11-12T01:50:20.780Z,10.4
2022-11-12T01:55:20.786Z,10.4
2022-11-12T02:00:20.974Z,10.4
2022-11-12T02:05:21.042Z,10.3
2022-11-12T02:10:20.836Z,10.3
2022-11-12T02:15:20.841Z,10.3
2022-11-12T02:20:20.944Z,10.2
2022-11-12T02:25:20.827Z,10.1
2022-11-12T02:30:20.914Z,10.1
2022-11-12T02:35:20.844Z,10.1
2022-11-12T02:40:21.007Z,10
2022-11-12T02:45:20.884Z,10
2022-11-12T02:50:20.891Z,9.9
2022-11-12T02:55:20.921Z,9.9
2022-11-12T03:00:21.023Z,9.9
2022-11-12T03:05:21.177Z,9.9
2022-11-12T03:10:20.927Z,9.8
2022-11-12T03:15:20.966Z,9.8
2022-11-12T03:20:21.140Z,9.8
2022-11-12T03:25:21.025Z,9.8
2022-11-12T03:30:21.122Z,9.7
2022-11-12T03:35:21.119Z,9.7
2022-11-12T03:40:21.305Z,9.6
2022-11-12T03:45:21.186Z,9.6
2022-11-12T03:50:21.340Z,9.6
2022-11-12T03:55:21.403Z,9.6
2022-11-12T04:00:21.541Z,9.6
2022-11-12T04:05:21.614Z,9.6
2022-11-12T04:10:21.486Z,9.5
2022-11-12T04:15:21.471Z,9.5
2022-11-12T04:20:21.713Z,9.5
2022-11-12T04:25:21.573Z,9.4
2022-11-12T04:30:21.579Z,9.4
2022-11-12T04:35:21.566Z,9.4
2022-11-12T04:40:21.750Z,9.4
2022-11-12T04:45:21.633Z,9.4
2022-11-12T04:50:21.636Z,9.4
2022-11-12T04:55:21.640Z,9.3
2022-11-12T05:00:21.864Z,9.3
2022-11-12T05:05:21.985Z,9.3
2022-11-12T05:10:21.751Z,9.3
2022-11-12T05:15:21.764Z,9.2
2022-11-12T05:20:21.968Z,9.2
2022-11-12T05:25:21.852Z,9.1
2022-11-12T05:30:21.841Z,9.1
2022-11-12T05:35:21.857Z,9.1
2022-11-12T05:40:22.171Z,9
2022-11-12T05:45:21.944Z,8.9
2022-11-12T05:50:21.941Z,8.9
2022-11-12T05:55:21.973Z,8.9
2022-11-12T06:00:22.245Z,8.9
2022-11-12T06:05:22.261Z,8.8
2022-11-12T06:10:22.142Z,8.8
2022-11-12T06:15:22.032Z,8.8
2022-11-12T06:20:22.236Z,8.7
2022-11-12T06:25:21.964Z,8.6
2022-11-12T06:30:25.602Z,8.6
2022-11-12T06:35:21.967Z,8.6
2022-11-12T06:40:22.079Z,8.5
2022-11-12T06:45:21.960Z,8.5
2022-11-12T06:50:21.950Z,8.4
2022-11-12T06:55:21.959Z,8.4
2022-11-12T07:00:22.071Z,8.4
2022-11-12T07:05:21.966Z,8.4
2022-11-12T07:10:21.956Z,8.3
2022-11-12T07:15:21.956Z,8.3
2022-11-12T07:20:22.075Z,8.3
2022-11-12T07:25:21.952Z,8.3
2022-11-12T07:30:21.949Z,8.3
2022-11-12T07:35:21.953Z,8.3
2022-11-12T07:40:22.059Z,8.3
2022-11-12T07:45:21.965Z,8.3
2022-11-12T07:50:21.951Z,8.3
2022-11-12T07:55:21.957Z,8.3
2022-11-12T08:00:22.063Z,8.4
2022-11-12T08:05:21.946Z,8.4
2022-11-12T08:10:21.949Z,8.4
2022-11-12T08:15:22.046Z,8.4
2022-11-12T08:20:22.095Z,8.4
2022-11-12T08:25:21.937Z,8.4
2022-11-12T08:30:21.964Z,8.5
2022-11-12T08:35:21.952Z,8.6
2022-11-12T08:40:22.062Z,8.6
2022-11-12T08:45:21.956Z,8.6
2022-11-12T08:50:21.947Z,8.7
2022-11-12T08:55:22.133Z,8.8
2022-11-12T09:00:22.059Z,8.8
2022-11-12T09:05:21.991Z,8.9
2022-11-12T09:10:21.968Z,8.9
2022-11-12T09:15:36.109Z,9
2022-11-12T09:20:22.077Z,9.1
2022-11-12T09:25:21.953Z,9.1
2022-11-12T09:30:21.962Z,9.3
2022-11-12T09:35:21.941Z,9.4
2022-11-12T09:40:22.149Z,9.4
2022-11-12T09:45:21.935Z,9.6
2022-11-12T09:50:22.015Z,9.7
2022-11-12T09:55:21.937Z,9.8
2022-11-12T10:00:22.071Z,9.9
2022-11-12T10:05:21.951Z,10.1
2022-11-12T10:10:21.976Z,10.3
2022-11-12T10:15:21.978Z,10.4
2022-11-12T10:20:22.123Z,10.5
2022-11-12T10:25:21.942Z,10.6
2022-11-12T10:30:21.943Z,10.8
2022-11-12T10:35:21.980Z,10.9
2022-11-12T10:40:22.063Z,11
2022-11-12T10:45:21.948Z,11.1
2022-11-12T10:50:21.930Z,11.2
2022-11-12T10:55:21.936Z,11.3
2022-11-12T11:00:22.078Z,11.4
2022-11-12T11:05:21.931Z,11.6
2022-11-12T11:10:21.951Z,11.6
2022-11-12T11:15:21.921Z,11.8
2022-11-12T11:20:22.045Z,11.9
2022-11-12T11:25:21.929Z,11.9
2022-11-12T11:30:21.985Z,12.1
2022-11-12T11:35:21.916Z,12.2
2022-11-12T11:40:22.034Z,12.3
2022-11-12T11:45:21.965Z,12.4
2022-11-12T11:50:21.937Z,12.5
2022-11-12T11:55:21.916Z,12.6
2022-11-12T12:00:22.037Z,12.8
2022-11-12T12:05:21.958Z,12.9
2022-11-12T12:10:22.935Z,13.1
2022-11-12T12:15:22.052Z,13.2
2022-11-12T12:20:22.086Z,13.3
2022-11-12T12:25:21.921Z,13.5
2022-11-12T12:30:21.901Z,13.6
2022-11-12T12:35:21.908Z,13.8
2022-11-12T12:40:22.087Z,13.9
2022-11-12T12:45:22.060Z,14
2022-11-12T12:50:21.891Z,14.2
2022-11-12T12:55:21.891Z,14.3
2022-11-12T13:00:22.031Z,14.4
2022-11-12T13:05:21.935Z,14.6
2022-11-12T13:10:21.940Z,14.7
2022-11-12T13:15:22.105Z,14.8
2022-11-12T13:20:22.091Z,14.9
2022-11-12T13:25:21.920Z,15
2022-11-12T13:30:21.988Z,15.1
2022-11-12T13:35:21.926Z,15.3
2022-11-12T13:40:22.644Z,15.3
2022-11-12T13:45:21.986Z,15.4
2022-11-12T13:50:21.940Z,15.4
2022-11-12T13:55:21.940Z,15.5
2022-11-12T14:00:22.091Z,15.5
2022-11-12T14:05:21.935Z,15.6
2022-11-12T14:10:22.037Z,15.6
2022-11-12T14:15:21.943Z,15.6
2022-11-12T14:20:22.070Z,15.6
2022-11-12T14:25:21.932Z,15.6
2022-11-12T14:30:21.938Z,15.6
2022-11-12T14:35:21.919Z,15.6
2022-11-12T14:40:22.039Z,15.6
2022-11-12T14:45:21.922Z,15.6
2022-11-12T14:50:21.916Z,15.6
2022-11-12T14:55:21.921Z,15.6
2022-11-12T15:00:22.039Z,15.6
2022-11-12T15:05:21.933Z,15.5
2022-11-12T15:10:22.127Z,15.5
2022-11-12T15:15:21.979Z,15.4
2022-11-12T15:20:22.066Z,15.4
2022-11-12T15:25:22.064Z,15.4
2022-11-12T15:30:21.950Z,15.3
2022-11-12T15:35:21.942Z,15.3
2022-11-12T15:40:22.071Z,15.2
2022-11-12T15:45:21.954Z,15.1
2022-11-12T15:50:21.947Z,15.1
2022-11-12T15:55:22.182Z,15
2022-11-12T16:00:22.111Z,14.9
2022-11-12T16:05:22.073Z,14.9
2022-11-12T16:10:21.977Z,14.8
2022-11-12T16:15:21.994Z,14.7
2022-11-12T16:20:22.100Z,14.6
2022-11-12T16:25:21.977Z,14.6
2022-11-12T16:30:21.974Z,14.4
2022-11-12T16:35:21.979Z,14.4
2022-11-12T16:40:22.102Z,14.3
2022-11-12T16:45:21.983Z,14.2
2022-11-12T16:50:21.966Z,14.1
2022-11-12T16:55:21.990Z,14
2022-11-12T17:00:22.083Z,13.9
2022-11-12T17:05:21.965Z,13.8
2022-11-12T17:10:21.979Z,13.7
2022-11-12T17:15:21.961Z,13.6
2022-11-12T17:20:22.089Z,13.5
2022-11-12T17:25:21.993Z,13.4
2022-11-12T17:30:21.959Z,13.3
2022-11-12T17:35:21.965Z,13.3
2022-11-12T17:40:22.073Z,13.1
2022-11-12T17:45:21.952Z,13.1
2022-11-12T17:50:21.946Z,13
2022-11-12T17:55:21.948Z,12.9
2022-11-12T18:00:22.095Z,12.8
2022-11-12T18:05:21.946Z,12.7
2022-11-12T18:10:21.965Z,12.6
2022-11-12T18:15:21.944Z,12.5
2022-11-12T18:20:22.073Z,12.4
2022-11-12T18:25:21.946Z,12.3
2022-11-12T18:30:21.956Z,12.3
2022-11-12T18:35:24.662Z,12.2
2022-11-12T18:40:22.257Z,12.1
2022-11-12T18:45:21.950Z,12
2022-11-12T18:50:21.932Z,11.9
2022-11-12T18:55:21.945Z,11.8
2022-11-12T19:00:22.265Z,11.8
2022-11-12T19:05:21.930Z,11.7
2022-11-12T19:10:21.945Z,11.6
2022-11-12T19:15:26.528Z,11.6
2022-11-12T19:20:22.067Z,11.5
2022-11-12T19:25:21.917Z,11.4
2022-11-12T19:30:22.259Z,11.4
2022-11-12T19:35:21.927Z,11.3
2022-11-12T19:40:22.024Z,11.3
2022-11-12T19:45:21.932Z,11.2
2022-11-12T19:50:24.648Z,11.1
2022-11-12T19:55:21.925Z,11.1
2022-11-12T20:00:22.258Z,11.1
2022-11-12T20:05:21.917Z,11
2022-11-12T20:10:21.930Z,11
2022-11-12T20:15:22.008Z,10.9
2022-11-12T20:20:22.045Z,10.9
2022-11-12T20:25:21.960Z,10.9
2022-11-12T20:30:21.931Z,10.9
2022-11-12T20:35:22.539Z,10.9
2022-11-12T20:40:22.041Z,10.9
2022-11-12T20:45:22.235Z,10.9
2022-11-12T20:50:22.245Z,10.9
2022-11-12T20:55:21.925Z,10.9
2022-11-12T21:00:24.227Z,10.9
2022-11-12T21:05:21.977Z,10.9
2022-11-12T21:10:21.916Z,10.9
2022-11-12T21:15:21.905Z,11
2022-11-12T21:20:22.240Z,11
2022-11-12T21:25:21.975Z,11
2022-11-12T21:30:21.978Z,11
2022-11-12T21:35:21.978Z,11.1
2022-11-12T21:40:22.025Z,11.1
2022-11-12T21:45:21.986Z,11.1
2022-11-12T21:50:22.089Z,11.1
2022-11-12T21:55:21.888Z,11.1
2022-11-12T22:00:45.033Z,11.1
2022-11-12T22:05:21.913Z,11.1
2022-11-12T22:10:21.899Z,11.2
2022-11-12T22:15:24.434Z,11.2
2022-11-12T22:20:22.023Z,11.2
2022-11-12T22:25:21.979Z,11.2
2022-11-12T22:30:22.153Z,11.3
2022-11-12T22:35:21.975Z,11.3
2022-11-12T22:40:22.300Z,11.3
2022-11-12T22:45:21.906Z,11.3
2022-11-12T22:50:22.278Z,11.3
2022-11-12T22:55:22.004Z,11.3
2022-11-12T23:00:22.847Z,11.3
2022-11-12T23:05:21.999Z,11.3
2022-11-12T23:10:22.182Z,11.3
2022-11-12T23:15:21.898Z,11.4
2022-11-12T23:20:22.011Z,11.4
2022-11-12T23:25:21.889Z,11.4
2022-11-12T23:30:22.400Z,11.4
2022-11-12T23:35:22.049Z,11.4
2022-11-12T23:40:25.129Z,11.4
2022-11-12T23:45:21.931Z,11.4
2022-11-12T23:50:22.240Z,11.5
2022-11-12T23:55:21.884Z,11.4
